createdAt,value
2018-11-20T00:00:54.302Z,2.90
2018-11-20T00:04:01.773Z,2.87
2018-11-20T00:07:09.326Z,3.13
2018-11-20T00:16:32.641Z,2.67
2018-11-20T00:19:59.154Z,2.80
2018-11-20T00:22:48.206Z,2.73
2018-11-20T00:25:55.691Z,2.60
2018-11-20T00:29:03.315Z,2.10
2018-11-20T00:32:10.776Z,2.50
2018-11-20T00:35:18.303Z,2.30
2018-11-20T00:38:30.410Z,3.00
2018-11-20T00:41:38.037Z,3.23
2018-11-20T00:44:45.535Z,3.07
2018-11-20T00:48:11.913Z,2.93
2018-11-20T00:51:15.081Z,2.80
2018-11-20T00:54:22.578Z,3.17
2018-11-20T00:57:11.418Z,2.67
2018-11-20T01:00:21.798Z,3.27
2018-11-20T01:03:10.700Z,2.80
2018-11-20T01:06:18.495Z,2.67
2018-11-20T01:09:27.125Z,3.10
2018-11-20T01:12:15.725Z,3.93
2018-11-20T01:15:23.224Z,3.13
2018-11-20T01:18:30.726Z,3.23
2018-11-20T01:21:19.557Z,3.20
2018-11-20T01:24:27.034Z,4.30
2018-11-20T01:27:34.512Z,3.83
2018-11-20T01:30:23.533Z,3.40
2018-11-20T01:33:22.627Z,3.50
2018-11-20T01:36:11.634Z,3.87
2018-11-20T01:39:37.975Z,3.77
2018-11-20T01:42:45.479Z,3.87
2018-11-20T01:45:52.949Z,4.00
2018-11-20T01:48:41.581Z,4.40
2018-11-20T01:51:49.044Z,3.30
2018-11-20T01:54:29.826Z,4.47
2018-11-20T01:57:37.355Z,4.60
2018-11-20T02:00:26.600Z,4.20
2018-11-20T02:03:52.948Z,4.23
2018-11-20T02:06:41.592Z,3.80
2018-11-20T02:09:49.035Z,4.50
2018-11-20T02:12:56.522Z,5.30
2018-11-20T02:16:03.999Z,4.67
2018-11-20T02:19:11.503Z,4.67
2018-11-20T02:22:24.569Z,4.77
2018-11-20T02:25:32.060Z,4.73
2018-11-20T02:28:39.613Z,4.10
2018-11-20T02:31:30.213Z,4.93
2018-11-20T02:34:37.701Z,4.47
2018-11-20T02:37:41.870Z,4.37
2018-11-20T02:40:57.398Z,4.60
2018-11-20T02:43:46.098Z,4.60
2018-11-20T02:47:12.427Z,5.10
2018-11-20T02:50:19.904Z,5.77
2018-11-20T02:53:07.681Z,5.43
2018-11-20T02:55:54.492Z,6.60
2018-11-20T02:58:51.006Z,6.63
2018-11-20T03:01:51.461Z,6.03
2018-11-20T03:04:58.899Z,6.47
2018-11-20T03:08:25.265Z,6.33
2018-11-20T03:11:14.205Z,7.30
2018-11-20T03:14:02.838Z,8.47
2018-11-20T03:17:29.167Z,8.33
2018-11-20T03:20:18.112Z,7.97
2018-11-20T03:23:06.991Z,8.87
2018-11-20T03:26:33.349Z,8.57
2018-11-20T03:29:48.719Z,8.70
2018-11-20T03:33:00.924Z,8.20
2018-11-20T03:35:46.061Z,9.30
2018-11-20T03:41:45.615Z,10.90
2018-11-20T03:44:33.394Z,10.33
2018-11-20T03:47:40.530Z,8.97
2018-11-20T03:50:47.551Z,9.30
2018-11-20T03:53:35.789Z,9.67
2018-11-20T03:56:42.878Z,10.43
2018-11-20T03:59:50.062Z,9.80
2018-11-20T04:02:57.127Z,9.87
2018-11-20T04:05:58.410Z,10.67
2018-11-20T04:09:05.486Z,10.27
2018-11-20T04:12:12.933Z,10.20
2018-11-20T04:14:52.462Z,10.47
2018-11-20T04:17:59.624Z,10.37
2018-11-20T04:21:06.649Z,9.80
2018-11-20T04:24:13.737Z,10.33
2018-11-20T04:27:20.782Z,11.13
2018-11-20T04:30:47.139Z,11.63
2018-11-20T04:34:16.300Z,10.10
2018-11-20T04:37:23.434Z,10.83
2018-11-20T04:40:11.226Z,11.47
2018-11-20T04:43:18.305Z,11.30
2018-11-20T04:46:25.128Z,11.23
2018-11-20T04:49:13.231Z,10.73
2018-11-20T04:52:20.594Z,12.03
2018-11-20T04:55:27.757Z,11.50
2018-11-20T04:58:15.609Z,12.53
2018-11-20T05:01:22.702Z,11.50
2018-11-20T05:04:19.654Z,11.20
2018-11-20T05:07:26.899Z,11.10
2018-11-20T05:10:33.948Z,12.30
2018-11-20T05:13:24.273Z,13.33
2018-11-20T05:16:31.245Z,12.57
2018-11-20T05:19:38.393Z,12.23
2018-11-20T05:22:26.233Z,11.53
2018-11-20T05:25:33.316Z,12.10
2018-11-20T05:28:40.394Z,11.73
2018-11-20T05:31:47.492Z,12.30
2018-11-20T05:34:54.324Z,12.20
2018-11-20T05:38:01.183Z,11.13
2018-11-20T05:40:49.806Z,12.70
2018-11-20T05:43:38.320Z,12.00
2018-11-20T05:46:26.079Z,11.33
2018-11-20T05:49:54.278Z,11.97
2018-11-20T05:53:01.379Z,11.77
2018-11-20T05:55:49.462Z,11.17
2018-11-20T05:58:56.558Z,11.57
2018-11-20T06:02:03.661Z,10.97
2018-11-20T06:05:10.724Z,11.43
2018-11-20T06:08:17.799Z,10.87
2018-11-20T06:11:26.251Z,10.90
2018-11-20T06:14:14.338Z,10.97
2018-11-20T06:17:21.421Z,11.17
2018-11-20T06:20:19.940Z,10.50
2018-11-20T06:23:44.291Z,10.80
2018-11-20T06:27:10.650Z,11.00
2018-11-20T06:29:58.878Z,10.97
2018-11-20T06:33:05.371Z,10.97
2018-11-20T06:35:59.841Z,11.33
2018-11-20T06:38:48.028Z,10.57
2018-11-20T06:41:55.145Z,10.33
2018-11-20T06:45:03.585Z,11.07
2018-11-20T06:47:51.504Z,11.90
2018-11-20T06:50:58.683Z,11.60
2018-11-20T06:54:25.013Z,12.23
2018-11-20T06:57:13.426Z,11.93
2018-11-20T07:00:01.176Z,10.93
2018-11-20T07:06:05.246Z,10.37
2018-11-20T07:11:50.541Z,11.33
2018-11-20T07:14:41.351Z,10.80
2018-11-20T07:20:39.103Z,11.03
2018-11-20T07:23:46.172Z,10.90
2018-11-20T07:26:34.514Z,10.90
2018-11-20T07:29:22.726Z,10.53
2018-11-20T07:32:49.059Z,10.97
2018-11-20T07:35:34.232Z,11.07
2018-11-20T07:38:22.368Z,10.77
2018-11-20T07:41:29.419Z,11.97
2018-11-20T07:44:18.712Z,10.60
2018-11-20T07:47:25.789Z,11.27
2018-11-20T07:50:32.935Z,11.33
2018-11-20T07:53:20.714Z,11.73
2018-11-20T07:56:27.998Z,12.17
2018-11-20T07:59:16.173Z,11.90
2018-11-20T08:02:10.070Z,12.67
2018-11-20T08:04:57.846Z,12.37
2018-11-20T08:08:04.969Z,11.90
2018-11-20T08:10:52.779Z,11.53
2018-11-20T08:13:59.852Z,11.10
2018-11-20T08:16:54.092Z,12.23
2018-11-20T08:20:01.547Z,11.20
2018-11-20T08:23:08.737Z,11.37
2018-11-20T08:26:16.089Z,11.40
2018-11-20T08:29:04.001Z,13.97
2018-11-20T08:31:52.156Z,11.83
2018-11-20T08:35:18.519Z,12.30
2018-11-20T08:38:25.642Z,12.27
2018-11-20T08:41:14.874Z,12.23
2018-11-20T08:44:22.242Z,12.63
2018-11-20T08:47:29.363Z,12.57
2018-11-20T08:50:36.442Z,12.47
2018-11-20T08:53:43.875Z,13.30
2018-11-20T09:00:07.648Z,13.03
2018-11-20T09:02:49.867Z,12.80
2018-11-20T09:05:49.456Z,11.80
2018-11-20T09:08:29.356Z,12.37
2018-11-20T09:11:16.099Z,13.07
2018-11-20T09:14:08.206Z,12.17
2018-11-20T09:16:54.209Z,12.50
2018-11-20T09:19:38.894Z,12.23
2018-11-20T09:22:32.382Z,12.97
2018-11-20T09:25:35.847Z,13.07
2018-11-20T09:28:23.785Z,11.13
2018-11-20T09:31:15.046Z,12.10
2018-11-20T09:34:08.507Z,12.60
2018-11-20T09:36:59.483Z,12.70
2018-11-20T09:39:54.243Z,12.57
2018-11-20T09:42:52.141Z,13.23
2018-11-20T09:46:12.601Z,11.63
2018-11-20T09:49:03.531Z,12.70
2018-11-20T09:51:43.185Z,12.30
2018-11-20T09:54:47.345Z,13.00
2018-11-20T09:57:33.570Z,13.60
2018-11-20T10:00:33.023Z,12.30
2018-11-20T10:03:19.756Z,12.47
2018-11-20T10:06:24.635Z,14.07
2018-11-20T10:09:09.424Z,13.07
2018-11-20T10:11:48.702Z,11.93
2018-11-20T10:14:38.930Z,12.67
2018-11-20T10:17:29.991Z,14.03
2018-11-20T10:20:17.980Z,13.93
2018-11-20T10:23:05.818Z,12.73
2018-11-20T10:25:53.928Z,12.67
2018-11-20T10:28:45.301Z,12.73
2018-11-20T10:31:31.704Z,12.30
2018-11-20T10:34:18.655Z,13.77
2018-11-20T10:37:08.948Z,12.70
2018-11-20T10:40:03.182Z,12.60
2018-11-20T10:46:17.426Z,13.20
2018-11-20T10:49:05.186Z,12.73
2018-11-20T10:54:50.501Z,14.33
2018-11-20T10:57:38.828Z,12.73
2018-11-20T11:00:45.915Z,13.50
2018-11-20T11:03:53.469Z,13.47
2018-11-20T11:07:11.288Z,12.87
2018-11-20T11:09:56.226Z,12.83
2018-11-20T11:15:30.813Z,12.77
2018-11-20T11:18:18.726Z,12.70
2018-11-20T11:21:26.129Z,12.67
2018-11-20T11:24:15.320Z,12.67
2018-11-20T11:27:04.617Z,12.47
2018-11-20T11:29:52.426Z,14.03
2018-11-20T11:32:40.825Z,13.63
2018-11-20T11:35:47.949Z,12.57
2018-11-20T11:38:36.178Z,12.50
2018-11-20T11:41:25.582Z,12.40
2018-11-20T11:44:32.847Z,12.50
2018-11-20T11:47:50.678Z,12.37
2018-11-20T11:50:56.759Z,13.13
2018-11-20T11:53:42.921Z,13.00
2018-11-20T11:56:33.646Z,12.30
2018-11-20T11:59:33.439Z,12.77
2018-11-20T12:05:37.225Z,13.37
2018-11-20T12:08:38.918Z,12.00
2018-11-20T12:11:27.976Z,11.50
2018-11-20T12:14:42.378Z,12.10
2018-11-20T12:17:31.087Z,12.10
2018-11-20T12:20:19.260Z,13.40
2018-11-20T12:26:13.167Z,12.23
2018-11-20T12:29:01.203Z,12.33
2018-11-20T12:31:50.807Z,12.77
2018-11-20T12:34:38.326Z,12.23
2018-11-20T12:37:27.910Z,12.63
2018-11-20T12:40:35.273Z,12.13
2018-11-20T12:43:23.490Z,11.60
2018-11-20T12:46:03.698Z,12.70
2018-11-20T12:49:11.690Z,12.30
2018-11-20T12:52:02.607Z,12.10
2018-11-20T12:55:09.749Z,13.87
2018-11-20T12:57:57.659Z,11.97
2018-11-20T13:00:46.852Z,12.17
2018-11-20T13:03:35.853Z,12.30
2018-11-20T13:06:25.258Z,11.40
2018-11-20T13:09:35.475Z,10.67
2018-11-20T13:12:44.308Z,11.00
2018-11-20T13:15:53.431Z,11.40
2018-11-20T13:18:44.888Z,12.23
2018-11-20T13:21:52.298Z,11.43
2018-11-20T13:24:48.283Z,12.07
2018-11-20T13:27:58.901Z,11.63
2018-11-20T13:31:12.444Z,12.13
2018-11-20T13:37:29.690Z,12.43
2018-11-20T13:40:18.214Z,10.87
2018-11-20T13:43:11.825Z,11.07
2018-11-20T13:45:58.472Z,11.40
2018-11-20T13:48:54.675Z,11.30
2018-11-20T13:51:42.444Z,11.93
2018-11-20T13:54:57.525Z,11.80
2018-11-20T13:57:45.763Z,12.67
2018-11-20T14:00:49.279Z,12.87
2018-11-20T14:03:43.066Z,12.47
2018-11-20T14:06:28.677Z,12.00
2018-11-20T14:09:17.398Z,12.87
2018-11-20T14:12:25.264Z,12.20
2018-11-20T14:15:34.384Z,12.50
2018-11-20T14:32:24.480Z,12.50
2018-11-20T14:35:34.900Z,12.33
2018-11-20T14:38:24.337Z,12.20
2018-11-20T14:46:38.141Z,13.03
2018-11-20T14:49:45.872Z,11.03
2018-11-20T14:52:54.715Z,12.03
2018-11-20T14:56:02.351Z,11.77
2018-11-20T14:59:10.710Z,11.70
2018-11-20T15:05:15.165Z,11.87
2018-11-20T15:07:59.275Z,11.87
2018-11-20T15:10:46.848Z,13.20
2018-11-20T15:13:56.508Z,13.83
2018-11-20T15:19:00.114Z,12.63
2018-11-20T15:21:48.273Z,12.90
2018-11-20T15:24:36.137Z,13.43
2018-11-20T15:27:26.478Z,13.53
2018-11-20T15:30:14.425Z,12.30
2018-11-20T15:33:08.815Z,14.00
2018-11-20T15:36:02.881Z,12.83
2018-11-20T15:39:02.333Z,13.63
2018-11-20T15:42:06.580Z,12.70
2018-11-20T15:45:06.726Z,13.43
2018-11-20T15:48:14.287Z,12.47
2018-11-20T15:51:05.523Z,13.10
2018-11-20T15:53:57.760Z,13.40
2018-11-20T15:56:46.047Z,12.93
2018-11-20T15:59:34.093Z,12.90
2018-11-20T16:02:33.093Z,12.93
2018-11-20T16:05:18.904Z,13.90
2018-11-20T16:08:08.929Z,14.83
2018-11-20T16:11:16.139Z,13.90
2018-11-20T16:14:25.499Z,13.57
2018-11-20T16:17:16.559Z,13.80
2018-11-20T16:20:03.647Z,13.73
2018-11-20T16:28:59.872Z,13.10
2018-11-20T16:31:48.517Z,14.40
2018-11-20T16:34:51.378Z,13.90
2018-11-20T16:37:38.670Z,13.27
2018-11-20T16:40:29.030Z,13.10
2018-11-20T16:43:16.989Z,13.10
2018-11-20T16:46:18.966Z,13.37
2018-11-20T16:49:04.393Z,15.00
2018-11-20T16:52:01.609Z,14.13
2018-11-20T16:54:49.527Z,14.33
2018-11-20T16:57:38.274Z,14.53
2018-11-20T17:00:45.304Z,14.97
2018-11-20T17:03:52.450Z,14.23
2018-11-20T17:06:40.675Z,13.10
2018-11-20T17:09:47.757Z,13.37
2018-11-20T17:12:58.472Z,14.53
2018-11-20T17:15:48.888Z,14.07
2018-11-20T17:26:05.912Z,14.80
2018-11-20T17:29:13.032Z,15.07
2018-11-20T17:32:20.651Z,14.37
2018-11-20T17:35:29.022Z,14.77
2018-11-20T17:38:36.990Z,13.30
2018-11-20T17:41:44.143Z,14.20
2018-11-20T17:44:53.578Z,16.00
2018-11-20T17:48:21.826Z,15.60
2018-11-20T17:51:29.140Z,15.63
2018-11-20T17:54:20.243Z,15.43
2018-11-20T17:57:28.378Z,13.47
2018-11-20T18:00:35.768Z,14.00
2018-11-20T18:04:02.153Z,14.90
2018-11-20T18:07:28.499Z,13.43
2018-11-20T18:10:35.766Z,13.80
2018-11-20T18:13:43.252Z,14.17
2018-11-20T18:16:33.096Z,13.30
2018-11-20T18:19:37.869Z,13.17
2018-11-20T18:22:28.687Z,13.67
2018-11-20T18:25:29.973Z,12.73
2018-11-20T18:28:37.315Z,14.23
2018-11-20T18:31:44.712Z,13.63
2018-11-20T18:34:52.072Z,14.27
2018-11-20T18:37:42.448Z,13.57
2018-11-20T18:40:49.588Z,13.07
2018-11-20T18:43:37.858Z,13.50
2018-11-20T18:46:26.912Z,12.67
2018-11-20T18:49:53.284Z,13.60
2018-11-20T18:55:12.162Z,13.07
2018-11-20T18:58:01.108Z,12.90
2018-11-20T19:00:49.138Z,13.23
2018-11-20T19:03:57.122Z,12.33
2018-11-20T19:06:45.078Z,12.43
2018-11-20T19:12:52.078Z,12.50
2018-11-20T19:15:42.796Z,12.83
2018-11-20T19:18:49.669Z,12.80
2018-11-20T19:21:59.797Z,12.87
2018-11-20T19:24:47.781Z,12.17
2018-11-20T19:30:43.130Z,11.73
2018-11-20T19:33:53.138Z,11.73
2018-11-20T19:36:42.792Z,10.93
2018-11-20T19:39:51.780Z,12.53
2018-11-20T19:48:56.159Z,11.67
2018-11-20T19:52:22.791Z,11.83
2018-11-20T19:55:33.131Z,11.33
2018-11-20T19:58:21.307Z,11.90
2018-11-20T20:01:28.479Z,12.40
2018-11-20T20:04:17.393Z,11.13
2018-11-20T20:07:25.169Z,11.97
2018-11-20T20:10:19.142Z,12.07
2018-11-20T20:13:05.111Z,10.30
2018-11-20T20:15:55.263Z,11.37
2018-11-20T20:19:02.496Z,11.43
2018-11-20T20:22:09.684Z,11.37
2018-11-20T20:25:18.893Z,10.57
2018-11-20T20:28:45.477Z,10.60
2018-11-20T20:31:52.991Z,10.57
2018-11-20T20:35:00.118Z,10.80
2018-11-20T20:38:07.389Z,12.70
2018-11-20T20:40:55.756Z,11.00
2018-11-20T20:43:45.176Z,11.10
2018-11-20T20:46:52.842Z,10.57
2018-11-20T20:50:01.072Z,11.03
2018-11-20T20:52:52.146Z,12.03
2018-11-20T20:56:00.994Z,11.17
2018-11-20T20:58:49.272Z,10.50
2018-11-20T21:01:37.292Z,11.07
2018-11-20T21:07:29.055Z,11.43
2018-11-20T21:10:17.488Z,9.93
2018-11-20T21:13:25.564Z,9.97
2018-11-20T21:16:17.119Z,11.03
2018-11-20T21:19:05.449Z,10.60
2018-11-20T21:22:12.609Z,10.70
2018-11-20T21:25:20.667Z,9.87
2018-11-20T21:28:08.882Z,10.07
2018-11-20T21:30:56.697Z,9.63
2018-11-20T21:33:36.266Z,10.13
2018-11-20T21:36:46.993Z,10.90
2018-11-20T21:39:54.167Z,10.00
2018-11-20T21:43:02.311Z,10.47
2018-11-20T21:49:17.496Z,10.10
2018-11-20T21:52:20.527Z,9.90
2018-11-20T21:55:27.652Z,9.57
2018-11-20T21:58:34.800Z,9.57
2018-11-20T22:01:30.905Z,9.40
2018-11-20T22:04:38.931Z,8.77
2018-11-20T22:07:46.410Z,9.33
2018-11-20T22:10:57.194Z,8.37
2018-11-20T22:13:46.663Z,8.90
2018-11-20T22:16:54.112Z,8.90
2018-11-20T22:20:03.280Z,9.43
2018-11-20T22:23:11.132Z,9.53
2018-11-20T22:26:19.952Z,9.33
2018-11-20T22:29:26.285Z,9.07
2018-11-20T22:32:33.137Z,9.43
2018-11-20T22:35:40.231Z,9.67
2018-11-20T22:38:30.914Z,8.20
2018-11-20T22:41:56.593Z,9.97
2018-11-20T22:45:23.016Z,9.07
2018-11-20T22:48:30.252Z,9.33
2018-11-20T22:51:37.429Z,8.80
2018-11-20T22:55:03.997Z,8.43
2018-11-20T22:58:11.215Z,10.23
2018-11-20T23:01:18.318Z,9.07
2018-11-20T23:04:30.232Z,8.83
2018-11-20T23:07:37.522Z,9.20
2018-11-20T23:10:26.794Z,8.90
2018-11-20T23:13:15.144Z,8.80
2018-11-20T23:16:04.737Z,9.10
2018-11-20T23:18:42.930Z,8.67
2018-11-20T23:21:11.853Z,9.23
2018-11-20T23:23:44.059Z,9.30
2018-11-20T23:26:32.196Z,8.63
2018-11-20T23:29:20.532Z,8.70
2018-11-20T23:32:08.663Z,9.43
2018-11-20T23:34:58.033Z,9.10
2018-11-20T23:38:05.370Z,8.80
2018-11-20T23:40:53.731Z,9.53
2018-11-20T23:43:41.944Z,8.23
2018-11-20T23:46:30.019Z,9.33
2018-11-20T23:49:18.457Z,8.57
2018-11-20T23:52:07.558Z,10.63
2018-11-20T23:54:37.329Z,9.27
2018-11-20T23:57:06.568Z,9.00
2018-11-20T23:59:35.418Z,9.40
